2003 LUMA (2003098S23041)


On this page: IBTrACS data - Map and Plots - Positions - Intensities - Original source data

Summary

Start Apr 8
End Apr 12
Basin SI
LMI 70 kt
Source reunion
In WMO? Yes
Previous storm 2003 KUJIRA (WP)
Previous in basin 2003 INIGO (SI)
Concurrent storms 2003 INIGO (SI)
2003 KUJIRA (WP)
2003 LUMA (SI)
Next in basin Missing
Next storm 2003 FILI (SP)

top of page IBTrACS Data: File Access

top of page HURSAT Data: File Access

Image of storm

top of page Plots:

Map of storm track will not appear if FTP is down
Time series of cyclone Maximum Sustained Wind will not appear if FTP is down
Time series of cyclone Minimum Central Pressure will not appear if FTP is down

top of page Track Data:Position

reunion
Date Lat Lon
2003-04-08 00:00:00 -23.4 40.7
2003-04-08 06:00:00 -24.3 40.6
2003-04-08 12:00:00 -25.2 40.0
2003-04-08 18:00:00 -25.4 39.6
2003-04-09 00:00:00 -25.6 39.3
2003-04-09 06:00:00 -25.8 39.2
2003-04-09 12:00:00 -25.7 40.1
2003-04-09 18:00:00 -26.0 41.6
2003-04-10 00:00:00 -27.0 43.2
2003-04-10 06:00:00 -28.0 45.0
2003-04-10 12:00:00 -29.2 47.0
2003-04-10 18:00:00 -30.1 49.6
2003-04-11 00:00:00 -31.2 52.6
2003-04-11 06:00:00 -32.5 56.0
2003-04-11 12:00:00 -34.2 60.2
2003-04-11 18:00:00 -36.1 65.1
2003-04-12 00:00:00 -38.5 70.4

top of pageTrack Data:Intensity

reunion
Date Wind Pres
2003-04-08 00:00:00 20. 1005.
2003-04-08 06:00:00 20. 1005.
2003-04-08 12:00:00 25. 1004.
2003-04-08 18:00:00 30. 1002.
2003-04-09 00:00:00 30. 1002.
2003-04-09 06:00:00 30. 1002.
2003-04-09 12:00:00 30. 1002.
2003-04-09 18:00:00 33. 1000.
2003-04-10 00:00:00 38. 996.
2003-04-10 06:00:00 45. 992.
2003-04-10 12:00:00 50. 988.
2003-04-10 18:00:00 50. 988.
2003-04-11 00:00:00 60. 984.
2003-04-11 06:00:00 70. 980.
2003-04-11 12:00:00 55. 987.
2003-04-11 18:00:00 45. 992.
2003-04-12 00:00:00 40. 997.

top of page Links to source data

Source Source file Format
reunion WMO-Best-Tracks.txt:Line=20442:luma WMO (old format)